Time;durP1;ratioP1;P1;durP2;ratioP2;P2;SDS_P1;SDS_P2;PMS_P1;PMS_P2;Temp;Humidity;BMP_temperature;BMP_pressure;BME280_temperature;BME280_humidity;BME280_pressure;Samples;Min_cycle;Max_cycle;Signal;HPM_P1;HPM_P2
2022/02/14 04:19:52;;;;;;;34.15;15.52;;;-2.90;99.90;;;;;;5865710;23;20013;-96
2022/02/14 04:27:32;;;;;;;28.08;15.32;;;-2.90;99.90;;;;;;5917004;23;20628;-96
2022/02/14 04:30:00;;;;;;;35.05;14.32;;;-2.90;99.90;;;;;;4924062;29;20464;-95
2022/02/14 04:32:26;;;;;;;39.17;15.48;;;-2.90;99.90;;;;;;4901106;29;20036;-96
2022/02/14 04:34:51;;;;;;;31.58;15.43;;;-2.90;99.90;;;;;;4901554;29;20083;-96
2022/02/14 05:47:27;;;;;;;51.22;22.23;;;-3.50;99.90;;;;;;5093900;28;20382;-94
2022/02/14 05:49:52;;;;;;;58.85;23.17;;;-3.30;99.90;;;;;;5095412;28;20028;-95
2022/02/14 05:52:18;;;;;;;51.88;22.65;;;-3.30;99.90;;;;;;5093766;28;20027;-93
2022/02/14 05:54:44;;;;;;;48.60;22.13;;;-3.20;99.90;;;;;;5094238;28;20060;-92
2022/02/14 05:57:10;;;;;;;54.55;23.40;;;-3.10;99.90;;;;;;5094220;28;20052;-92
2022/02/14 05:59:36;;;;;;;50.67;23.15;;;-3.10;99.90;;;;;;5093798;28;20049;-91
2022/02/14 06:02:02;;;;;;;52.95;21.33;;;-2.90;99.90;;;;;;5092670;28;20119;-92
2022/02/14 06:04:29;;;;;;;43.08;19.45;;;-2.90;99.90;;;;;;5092412;28;20510;-92
2022/02/14 06:06:55;;;;;;;38.72;18.23;;;-2.80;99.90;;;;;;5094300;28;20501;-93
2022/02/14 06:09:22;;;;;;;34.40;16.67;;;-2.70;99.90;;;;;;5095024;28;20020;-91
2022/02/14 06:11:47;;;;;;;38.38;17.02;;;-2.70;99.90;;;;;;5091576;28;20031;-94
2022/02/14 06:14:14;;;;;;;37.65;16.85;;;-2.60;99.90;;;;;;5090283;28;20028;-94
2022/02/14 06:16:40;;;;;;;32.95;14.95;;;-2.50;99.90;;;;;;5090205;28;20032;-93
2022/02/14 06:19:06;;;;;;;32.05;14.75;;;-2.40;99.90;;;;;;5090211;28;20492;-93
2022/02/14 06:21:31;;;;;;;28.25;13.88;;;-2.30;99.90;;;;;;5090157;28;20078;-93
2022/02/14 06:23:57;;;;;;;31.90;14.23;;;-2.20;99.90;;;;;;5090234;28;20059;-93
2022/02/14 06:26:23;;;;;;;32.85;15.90;;;-2.20;99.90;;;;;;5090199;28;20031;-93
2022/02/14 06:28:49;;;;;;;33.10;15.60;;;-2.10;99.90;;;;;;5092152;28;20020;-94
2022/02/14 06:31:14;;;;;;;26.95;13.85;;;-2.10;99.90;;;;;;5090130;28;20085;-95
2022/02/14 06:33:40;;;;;;;32.65;14.80;;;-2.00;99.90;;;;;;5089891;28;20058;-94
2022/02/14 06:36:07;;;;;;;32.95;17.50;;;-1.90;99.90;;;;;;5089971;28;20020;-94
2022/02/14 06:38:34;;;;;;;31.40;16.90;;;-1.90;99.90;;;;;;5089772;28;20028;-94
2022/02/14 06:41:00;;;;;;;34.20;17.98;;;-1.80;99.90;;;;;;5090119;28;20077;-92
2022/02/14 06:43:25;;;;;;;35.03;18.40;;;-1.70;99.90;;;;;;5090021;28;20020;-93
2022/02/14 06:45:51;;;;;;;32.25;14.95;;;-1.70;99.90;;;;;;5089751;28;20055;-95
2022/02/14 06:48:17;;;;;;;26.20;13.63;;;-1.60;99.90;;;;;;5089855;28;20024;-94
2022/02/14 06:50:43;;;;;;;20.80;11.48;;;-1.50;99.90;;;;;;5089796;28;20111;-94
2022/02/14 06:53:09;;;;;;;23.73;11.27;;;-1.50;99.90;;;;;;5089905;28;20060;-95
2022/02/14 06:55:35;;;;;;;20.20;9.48;;;-1.40;99.90;;;;;;5090479;28;20036;-94
2022/02/14 06:58:01;;;;;;;20.95;9.95;;;-1.30;99.90;;;;;;5080812;28;20040;-94
2022/02/14 07:00:26;;;;;;;22.02;10.38;;;-1.30;99.90;;;;;;5076874;28;20040;-94
2022/02/14 07:02:52;;;;;;;25.15;12.02;;;-1.20;99.90;;;;;;5075949;28;20055;-95
2022/02/14 07:05:22;;;;;;;23.55;12.20;;;-1.20;99.90;;;;;;5075928;28;20051;-95
2022/02/14 07:07:49;;;;;;;22.17;11.55;;;-1.10;99.90;;;;;;5076016;28;20107;-95
2022/02/14 07:10:15;;;;;;;21.08;10.60;;;-1.10;99.90;;;;;;5075828;28;20421;-94
2022/02/14 07:12:42;;;;;;;18.27;10.02;;;-1.00;99.90;;;;;;5075838;28;20021;-94
2022/02/14 07:15:09;;;;;;;35.20;15.48;;;-1.00;99.90;;;;;;5076505;28;20086;-95
2022/02/14 07:17:36;;;;;;;26.52;13.48;;;-0.90;99.90;;;;;;5075684;28;20056;-95
2022/02/14 07:20:02;;;;;;;22.77;11.52;;;-0.90;99.90;;;;;;5075710;28;20032;-94
2022/02/14 07:22:28;;;;;;;23.00;10.30;;;-0.90;99.90;;;;;;5075439;28;20463;-94
2022/02/14 07:24:54;;;;;;;20.38;9.85;;;-0.80;99.90;;;;;;5075826;28;20098;-94
2022/02/14 07:27:19;;;;;;;21.27;9.35;;;-0.70;99.90;;;;;;5075614;28;20024;-94
2022/02/14 07:29:45;;;;;;;23.58;10.80;;;-0.70;99.90;;;;;;5075378;28;20020;-95
2022/02/14 07:32:11;;;;;;;28.58;15.30;;;-0.70;99.90;;;;;;5076075;28;20021;-95
2022/02/14 07:34:37;;;;;;;27.17;13.05;;;-0.60;99.90;;;;;;5075433;28;20048;-96
2022/02/14 07:37:03;;;;;;;31.77;15.13;;;-0.60;99.90;;;;;;5075358;28;20029;-94
2022/02/14 07:39:30;;;;;;;32.30;14.00;;;-0.60;99.90;;;;;;5075304;28;20493;-95
2022/02/14 07:41:57;;;;;;;39.80;15.88;;;-0.50;99.90;;;;;;5075340;28;20064;-94
2022/02/14 07:44:23;;;;;;;36.90;15.02;;;-0.50;99.90;;;;;;5076221;28;20130;-94
2022/02/14 07:46:51;;;;;;;42.47;15.65;;;-0.40;99.90;;;;;;5075685;28;20045;-93
2022/02/14 07:49:23;;;;;;;33.50;15.57;;;-0.30;99.90;;;;;;5076549;28;20092;-94
2022/02/14 07:51:50;;;;;;;25.77;14.07;;;-0.30;99.90;;;;;;5075079;28;20025;-95
2022/02/14 07:54:16;;;;;;;26.58;12.07;;;-0.20;99.90;;;;;;5075006;28;20070;-93
2022/02/14 07:56:42;;;;;;;22.58;11.90;;;-0.20;99.90;;;;;;5074824;28;20111;-94
2022/02/14 07:59:08;;;;;;;21.33;11.05;;;-0.10;99.90;;;;;;5075537;28;20511;-94
2022/02/14 08:01:34;;;;;;;26.65;10.88;;;0.00;99.90;;;;;;5074967;28;20038;-94
2022/02/14 08:04:00;;;;;;;22.48;11.10;;;0.00;99.90;;;;;;5075807;28;20029;-94
2022/02/14 08:06:26;;;;;;;29.77;11.27;;;0.10;99.90;;;;;;5075076;28;20021;-95
2022/02/14 08:08:52;;;;;;;24.30;11.82;;;0.10;99.90;;;;;;5074271;28;20119;-96
2022/02/14 08:11:21;;;;;;;22.98;11.10;;;0.10;99.90;;;;;;5074659;28;20440;-95
2022/02/14 08:13:50;;;;;;;20.30;10.63;;;0.20;99.90;;;;;;5074757;28;20020;-95
2022/02/14 08:16:16;;;;;;;29.02;14.25;;;0.30;99.90;;;;;;5075337;28;20028;-91
2022/02/14 08:18:42;;;;;;;23.33;11.90;;;0.30;99.90;;;;;;5074644;28;20112;-95
2022/02/14 08:21:08;;;;;;;29.60;13.65;;;0.30;99.90;;;;;;5074462;28;20426;-95
2022/02/14 08:23:34;;;;;;;31.60;13.27;;;0.40;99.90;;;;;;5074486;28;20029;-94
2022/02/14 08:25:59;;;;;;;33.15;17.98;;;0.40;99.90;;;;;;5074510;28;20085;-94
2022/02/14 08:28:25;;;;;;;28.27;13.13;;;0.50;99.90;;;;;;5074941;28;20021;-93
2022/02/14 08:30:51;;;;;;;25.77;12.98;;;0.40;99.90;;;;;;5075335;28;20021;-94
2022/02/14 08:33:17;;;;;;;41.78;23.63;;;0.50;99.90;;;;;;5075441;28;20075;-96
2022/02/14 08:35:44;;;;;;;31.80;14.90;;;0.50;99.90;;;;;;5074790;28;20032;-96
2022/02/14 08:38:11;;;;;;;29.58;13.38;;;0.60;99.90;;;;;;5074209;28;20024;-95
2022/02/14 08:40:37;;;;;;;26.67;12.68;;;0.70;99.90;;;;;;5074266;28;20029;-92
2022/02/14 08:43:04;;;;;;;21.75;11.13;;;0.70;99.90;;;;;;5074153;28;20024;-92
2022/02/14 08:45:33;;;;;;;32.05;13.73;;;0.70;99.90;;;;;;5069778;28;20081;-96
2022/02/14 08:48:00;;;;;;;28.42;12.65;;;0.80;99.90;;;;;;5037982;28;20475;-91
2022/02/14 08:50:29;;;;;;;28.50;13.15;;;0.80;99.90;;;;;;5037687;28;20108;-94
2022/02/14 08:52:55;;;;;;;28.70;12.63;;;0.80;99.90;;;;;;5037638;28;20021;-94
2022/02/14 08:55:21;;;;;;;24.88;12.25;;;0.90;99.90;;;;;;5037328;28;20021;-96
2022/02/14 08:57:47;;;;;;;24.25;11.50;;;0.90;99.90;;;;;;5037673;28;20024;-93
2022/02/14 09:00:14;;;;;;;28.55;13.85;;;1.00;99.90;;;;;;5037176;28;20448;-93
2022/02/14 09:02:40;;;;;;;32.72;15.32;;;1.00;99.90;;;;;;5036882;28;20025;-95
2022/02/14 09:05:06;;;;;;;24.00;11.77;;;1.10;99.90;;;;;;5036905;28;20035;-95
2022/02/14 09:07:32;;;;;;;36.30;16.25;;;1.10;99.90;;;;;;5037049;28;20021;-95
2022/02/14 09:09:58;;;;;;;28.05;14.75;;;1.20;99.90;;;;;;5038080;28;20115;-93
2022/02/14 09:12:24;;;;;;;24.65;13.65;;;1.30;99.90;;;;;;5037599;28;20052;-94
2022/02/14 09:14:53;;;;;;;24.42;11.75;;;1.30;99.90;;;;;;5036913;28;20021;-94
2022/02/14 09:17:19;;;;;;;55.83;25.70;;;1.30;99.90;;;;;;5037041;28;20029;-94
2022/02/14 09:19:45;;;;;;;40.13;18.20;;;1.40;99.90;;;;;;5037731;28;20021;-96
2022/02/14 09:22:12;;;;;;;27.33;13.70;;;1.50;99.90;;;;;;5037016;28;20481;-94
2022/02/14 09:24:38;;;;;;;20.65;10.88;;;1.50;99.90;;;;;;5036770;28;20048;-92
2022/02/14 09:27:04;;;;;;;20.08;9.88;;;1.60;99.90;;;;;;5036674;28;20021;-93
2022/02/14 09:29:30;;;;;;;26.88;12.95;;;1.60;99.60;;;;;;5038046;28;20025;-94
2022/02/14 09:31:57;;;;;;;24.83;9.80;;;1.70;99.10;;;;;;5036894;28;20049;-93
2022/02/14 09:34:24;;;;;;;39.78;18.98;;;1.70;98.60;;;;;;5036913;28;20033;-94
2022/02/14 09:36:53;;;;;;;29.88;11.30;;;1.80;98.40;;;;;;5036460;28;20383;-90
2022/02/14 09:39:19;;;;;;;33.72;16.27;;;1.80;97.90;;;;;;5037002;28;20454;-90
2022/02/14 09:41:46;;;;;;;21.70;11.07;;;1.80;98.50;;;;;;5036577;28;20125;-91
2022/02/14 09:44:12;;;;;;;17.95;9.30;;;1.90;97.90;;;;;;5037312;28;20025;-89
2022/02/14 15:33:37;;;;;;;16.77;7.28;;;-0.80;89.20;;;;;;5092635;27;20690;-91
2022/02/14 15:36:03;;;;;;;18.25;7.45;;;-0.90;89.60;;;;;;5090748;28;20073;-90
2022/02/14 15:38:29;;;;;;;17.85;8.52;;;-1.00;90.80;;;;;;5090704;28;20035;-91
2022/02/14 15:40:55;;;;;;;17.33;7.78;;;-1.00;91.30;;;;;;5090610;28;20024;-93
2022/02/14 15:43:24;;;;;;;14.60;7.75;;;-1.10;91.60;;;;;;5090889;28;20367;-91
2022/02/14 15:45:53;;;;;;;20.73;9.00;;;-1.10;92.10;;;;;;5090573;28;20029;-92
2022/02/14 15:48:20;;;;;;;22.90;10.20;;;-1.10;92.60;;;;;;5090546;28;20024;-92
2022/02/14 15:50:49;;;;;;;23.98;10.88;;;-1.10;93.10;;;;;;5090363;28;20024;-93
2022/02/14 15:53:17;;;;;;;27.95;13.27;;;-1.10;93.50;;;;;;5090328;28;20031;-92
2022/02/14 15:55:42;;;;;;;30.02;12.88;;;-1.10;94.00;;;;;;5090523;28;20374;-92
2022/02/14 15:58:08;;;;;;;28.48;14.20;;;-1.10;94.50;;;;;;5090260;28;20029;-93
2022/02/14 16:00:34;;;;;;;34.60;17.55;;;-1.10;94.80;;;;;;5089898;28;20039;-92
2022/02/14 16:02:59;;;;;;;38.42;19.55;;;-1.10;95.10;;;;;;5090298;28;20039;-92
2022/02/14 16:05:25;;;;;;;39.95;19.30;;;-1.10;95.60;;;;;;5090649;28;20082;-93
2022/02/14 16:07:51;;;;;;;39.65;18.80;;;-1.10;96.00;;;;;;5089980;28;20029;-93
2022/02/14 16:10:17;;;;;;;38.78;18.38;;;-1.20;96.20;;;;;;5090096;28;20020;-94
2022/02/14 16:12:43;;;;;;;43.50;18.35;;;-1.20;96.50;;;;;;5089840;28;20028;-93
2022/02/14 16:15:13;;;;;;;39.38;18.58;;;-1.10;97.10;;;;;;5090091;28;20036;-93
2022/02/14 16:17:44;;;;;;;42.90;17.88;;;-1.20;97.10;;;;;;5089889;28;20093;-93
2022/02/14 16:20:14;;;;;;;40.33;17.70;;;-1.20;97.30;;;;;;5090049;28;20023;-94
2022/02/14 16:22:51;;;;;;;33.90;15.18;;;-1.20;97.40;;;;;;5090236;28;20059;-95
2022/02/14 16:25:17;;;;;;;32.28;15.35;;;-1.20;97.80;;;;;;5090806;28;20406;-94
2022/02/14 16:27:44;;;;;;;32.13;16.38;;;-1.30;98.50;;;;;;5089991;28;20028;-96
2022/02/14 16:30:11;;;;;;;36.33;13.98;;;-1.30;99.00;;;;;;5089906;28;20024;-94
2022/02/14 16:32:38;;;;;;;29.67;14.80;;;-1.40;99.20;;;;;;5089748;28;20531;-94
2022/02/14 16:35:04;;;;;;;30.73;13.57;;;-1.40;99.50;;;;;;5089508;28;20031;-95
2022/02/14 16:37:31;;;;;;;36.03;16.35;;;-1.40;99.90;;;;;;5089409;28;20048;-96
2022/02/14 16:39:58;;;;;;;26.77;13.40;;;-1.40;99.90;;;;;;5089559;28;20016;-94
2022/02/14 16:42:24;;;;;;;34.38;15.85;;;-1.50;99.90;;;;;;5089595;28;20039;-94
2022/02/14 16:44:51;;;;;;;39.67;17.02;;;-1.40;99.90;;;;;;5076861;28;20029;-94
2022/02/14 16:47:17;;;;;;;48.03;19.63;;;-1.50;99.90;;;;;;5076056;28;20024;-95
2022/02/14 16:49:54;;;;;;;40.92;17.95;;;-1.40;99.90;;;;;;5075916;28;20378;-95
2022/02/14 16:52:28;;;;;;;54.35;21.30;;;-1.40;99.90;;;;;;5077235;28;20032;-95
2022/02/14 16:54:56;;;;;;;43.97;21.83;;;-1.40;99.90;;;;;;5076224;28;20155;-95
2022/02/14 16:57:24;;;;;;;49.95;20.98;;;-1.40;99.90;;;;;;5075902;28;20023;-95
2022/02/14 16:59:50;;;;;;;44.10;19.15;;;-1.40;99.90;;;;;;5075672;28;20027;-95
2022/02/14 17:02:17;;;;;;;39.45;17.33;;;-1.40;99.90;;;;;;5076172;28;20086;-96
2022/02/14 17:04:43;;;;;;;48.17;18.05;;;-1.40;99.90;;;;;;5075185;28;20017;-95
2022/02/14 17:07:09;;;;;;;39.97;18.15;;;-1.40;99.90;;;;;;5076114;28;20025;-95
2022/02/14 17:09:35;;;;;;;42.63;16.35;;;-1.50;99.90;;;;;;5075576;28;20024;-96
2022/02/14 17:12:01;;;;;;;33.13;15.55;;;-1.50;99.90;;;;;;5075403;28;20492;-95
2022/02/14 17:14:27;;;;;;;41.10;18.05;;;-1.50;99.90;;;;;;5075266;28;20115;-95
2022/02/14 17:16:53;;;;;;;40.30;17.42;;;-1.50;99.90;;;;;;5075696;28;20467;-96
2022/02/14 17:19:19;;;;;;;42.53;18.85;;;-1.60;99.90;;;;;;5075539;28;20032;-96
2022/02/14 17:21:44;;;;;;;39.83;17.63;;;-1.60;99.90;;;;;;5075673;28;20025;-96
2022/02/14 17:24:10;;;;;;;44.83;17.45;;;-1.60;99.90;;;;;;5075387;28;20138;-96
2022/02/14 17:26:38;;;;;;;54.42;21.45;;;-1.60;99.90;;;;;;5075057;28;20029;-96
2022/02/14 17:29:04;;;;;;;39.60;18.88;;;-1.60;99.90;;;;;;5075394;28;20047;-96
2022/02/14 17:31:33;;;;;;;47.08;19.23;;;-1.60;99.90;;;;;;5074747;28;20047;-95
2022/02/14 17:33:59;;;;;;;36.90;17.52;;;-1.60;99.90;;;;;;5058338;28;20106;-96
2022/02/14 17:36:26;;;;;;;40.45;17.75;;;-1.60;99.90;;;;;;5058887;28;20075;-96
2022/02/14 17:38:53;;;;;;;38.13;15.65;;;-1.60;99.90;;;;;;5058445;28;20028;-95
2022/02/14 17:41:20;;;;;;;32.88;15.90;;;-1.60;99.90;;;;;;5058959;28;20437;-95
2022/02/14 17:43:47;;;;;;;53.85;20.20;;;-1.60;99.90;;;;;;5059087;28;20039;-96
2022/02/14 17:46:13;;;;;;;40.85;18.58;;;-1.60;99.90;;;;;;5057998;28;20044;-96
2022/02/14 17:48:39;;;;;;;50.20;20.52;;;-1.60;99.90;;;;;;5058941;28;20021;-95
2022/02/14 17:51:05;;;;;;;42.90;19.85;;;-1.60;99.90;;;;;;5058406;28;20043;-95
2022/02/14 17:53:31;;;;;;;45.97;22.45;;;-1.60;99.90;;;;;;5057855;28;20051;-96
2022/02/14 17:55:57;;;;;;;61.72;26.98;;;-1.70;99.90;;;;;;5057962;28;20048;-96
2022/02/14 17:58:23;;;;;;;58.70;24.65;;;-1.70;99.90;;;;;;5057784;28;20486;-96
2022/02/14 18:00:49;;;;;;;43.67;21.27;;;-1.70;99.90;;;;;;5057906;28;20016;-95
2022/02/14 18:03:15;;;;;;;49.55;23.58;;;-1.70;99.90;;;;;;5057739;28;20028;-95
2022/02/14 18:05:40;;;;;;;58.10;25.42;;;-1.80;99.90;;;;;;5058167;28;20040;-95
2022/02/14 18:08:06;;;;;;;46.03;21.05;;;-1.80;99.90;;;;;;5057635;28;20055;-94
2022/02/14 18:10:34;;;;;;;46.42;20.80;;;-1.80;99.90;;;;;;5057356;28;20025;-95
2022/02/14 18:13:02;;;;;;;47.60;22.90;;;-1.80;99.90;;;;;;5057920;28;20031;-95
2022/02/14 18:15:29;;;;;;;47.53;21.75;;;-1.90;99.90;;;;;;5058021;28;20052;-96
2022/02/14 18:17:55;;;;;;;50.78;22.17;;;-1.90;99.90;;;;;;5057582;28;20028;-94
2022/02/14 18:20:22;;;;;;;44.20;20.52;;;-1.90;99.90;;;;;;5057580;28;20549;-95
2022/02/14 18:22:48;;;;;;;43.83;19.67;;;-1.90;99.90;;;;;;5057469;28;20041;-95
2022/02/14 18:25:15;;;;;;;53.05;23.83;;;-1.90;99.90;;;;;;5057469;28;20492;-96
2022/02/14 18:27:41;;;;;;;45.30;21.98;;;-1.90;99.90;;;;;;5057313;28;20081;-95
2022/02/14 18:30:08;;;;;;;41.53;20.67;;;-2.00;99.90;;;;;;5057172;28;20378;-95
2022/02/14 18:32:35;;;;;;;39.55;20.45;;;-2.00;99.90;;;;;;5064937;28;20049;-96
2022/02/14 18:35:01;;;;;;;46.47;21.35;;;-2.00;99.90;;;;;;5073720;28;20417;-95
2022/02/14 18:37:27;;;;;;;48.35;21.15;;;-2.00;99.90;;;;;;5075044;28;20024;-96
2022/02/14 18:39:53;;;;;;;46.17;23.15;;;-2.10;99.90;;;;;;5073565;28;20031;-96
2022/02/14 18:42:18;;;;;;;46.08;22.60;;;-2.10;99.90;;;;;;5073910;28;20551;-96
2022/02/14 18:44:44;;;;;;;48.13;24.65;;;-2.10;99.90;;;;;;5073595;28;20024;-96
2022/02/14 18:47:11;;;;;;;60.83;28.38;;;-2.10;99.90;;;;;;5073752;28;20115;-96
2022/02/14 18:49:37;;;;;;;58.33;28.73;;;-2.10;99.90;;;;;;5074568;28;20050;-96
2022/02/14 18:52:05;;;;;;;60.08;27.02;;;-2.10;99.90;;;;;;5073564;28;20031;-96
2022/02/14 18:54:31;;;;;;;49.38;24.63;;;-2.20;99.90;;;;;;5073646;28;20107;-96
2022/02/14 18:56:57;;;;;;;42.47;20.25;;;-2.10;99.90;;;;;;5073464;28;20498;-96
2022/02/14 18:59:23;;;;;;;39.33;18.75;;;-2.10;99.90;;;;;;5073458;28;20120;-96
2022/02/14 19:01:51;;;;;;;39.05;19.77;;;-2.10;99.90;;;;;;5073400;28;20033;-96
2022/02/14 19:04:20;;;;;;;35.85;18.05;;;-2.10;99.90;;;;;;5073776;28;20463;-96
2022/02/14 19:06:46;;;;;;;37.28;16.27;;;-2.10;99.90;;;;;;5073953;28;20031;-96
2022/02/14 19:09:13;;;;;;;36.45;16.50;;;-2.10;99.90;;;;;;5073401;28;20032;-96
2022/02/14 19:11:40;;;;;;;28.45;14.38;;;-2.10;99.90;;;;;;5073685;28;20025;-96
2022/02/14 19:14:05;;;;;;;32.28;15.15;;;-2.10;99.90;;;;;;5073405;28;20116;-96
2022/02/14 19:16:31;;;;;;;31.98;15.07;;;-2.10;99.90;;;;;;5073087;28;20450;-96
2022/02/14 19:18:57;;;;;;;26.63;14.98;;;-2.10;99.90;;;;;;5073353;28;20021;-96
2022/02/14 19:21:23;;;;;;;29.95;15.07;;;-2.10;99.90;;;;;;5073315;28;20070;-96
2022/02/14 19:23:48;;;;;;;31.15;15.52;;;-2.10;99.90;;;;;;5073429;28;20028;-96
2022/02/14 19:26:14;;;;;;;32.63;15.82;;;-2.10;99.90;;;;;;5073672;28;20020;-96
2022/02/14 19:28:43;;;;;;;32.45;15.25;;;-2.10;99.90;;;;;;5073947;28;20021;-96
2022/02/14 19:31:09;;;;;;;28.65;15.05;;;-2.20;99.90;;;;;;5073016;28;20429;-96
2022/02/14 19:33:49;;;;;;;36.83;14.40;;;-2.20;99.90;;;;;;5073839;28;20095;-96
2022/02/14 19:36:21;;;;;;;25.63;13.23;;;-2.20;99.90;;;;;;5073212;28;20032;-96
2022/02/14 19:38:49;;;;;;;27.77;13.90;;;-2.20;99.90;;;;;;5073893;28;20031;-96
2022/02/14 19:41:15;;;;;;;27.88;13.30;;;-2.10;99.90;;;;;;5073204;28;20115;-96
2022/02/14 19:43:40;;;;;;;22.90;12.27;;;-2.20;99.90;;;;;;5073147;28;20064;-95
2022/02/14 19:46:07;;;;;;;24.75;12.07;;;-2.20;99.90;;;;;;5073185;28;20024;-95
2022/02/14 19:48:35;;;;;;;21.13;11.32;;;-2.20;99.90;;;;;;5073010;28;20119;-96
2022/02/14 19:51:02;;;;;;;21.65;10.85;;;-2.20;99.90;;;;;;5073057;28;20020;-96
2022/02/14 19:53:28;;;;;;;24.58;12.55;;;-2.20;99.90;;;;;;5072849;28;20066;-96
2022/02/14 19:55:54;;;;;;;24.33;11.40;;;-2.20;99.90;;;;;;5072963;28;20021;-96
2022/02/14 19:58:20;;;;;;;23.70;11.18;;;-2.20;99.90;;;;;;5072898;28;20032;-95
2022/02/14 20:00:46;;;;;;;24.35;11.82;;;-2.20;99.90;;;;;;5073117;28;20017;-96
2022/02/14 20:03:12;;;;;;;23.15;11.05;;;-2.20;99.90;;;;;;5073120;28;20074;-94
2022/02/14 20:05:37;;;;;;;27.10;11.05;;;-2.20;99.90;;;;;;5072564;28;20446;-94
2022/02/14 20:08:04;;;;;;;21.02;10.70;;;-2.20;99.90;;;;;;5073208;28;20081;-94
2022/02/14 20:10:30;;;;;;;18.50;9.82;;;-2.20;99.90;;;;;;5072502;28;20060;-93
2022/02/14 20:12:56;;;;;;;20.65;10.10;;;-2.20;99.90;;;;;;5072492;28;20052;-94
2022/02/14 20:15:21;;;;;;;27.17;10.05;;;-2.20;99.90;;;;;;5072318;28;20020;-92
2022/02/14 20:17:47;;;;;;;26.38;11.00;;;-2.20;99.90;;;;;;5072803;28;20033;-95
2022/02/14 20:20:15;;;;;;;19.33;10.18;;;-2.20;99.90;;;;;;5076246;28;20020;-95
2022/02/14 20:22:42;;;;;;;22.42;10.90;;;-2.10;99.90;;;;;;5076539;28;20106;-95
2022/02/14 20:25:09;;;;;;;23.05;10.48;;;-2.20;99.90;;;;;;5076328;28;20037;-95
2022/02/14 20:27:39;;;;;;;23.23;10.70;;;-2.20;99.90;;;;;;5076262;28;20052;-96
2022/02/14 20:30:08;;;;;;;19.33;9.52;;;-2.10;99.90;;;;;;5076366;28;20110;-96
2022/02/14 20:32:34;;;;;;;20.35;10.45;;;-2.20;99.90;;;;;;5076115;28;20052;-96
2022/02/14 20:34:59;;;;;;;17.15;8.85;;;-2.10;99.90;;;;;;5076067;28;20104;-96
2022/02/14 20:37:25;;;;;;;17.10;8.77;;;-2.20;99.90;;;;;;5075949;28;20488;-95
2022/02/14 20:39:56;;;;;;;16.00;8.55;;;-2.20;99.90;;;;;;5075969;28;20107;-96
2022/02/14 20:42:23;;;;;;;17.17;9.13;;;-2.10;99.90;;;;;;5076145;28;20032;-96
2022/02/14 20:44:50;;;;;;;15.85;7.97;;;-2.10;99.90;;;;;;5075940;28;20025;-95
2022/02/14 20:47:15;;;;;;;14.70;7.60;;;-2.10;99.90;;;;;;5075774;28;20039;-96
2022/02/14 20:49:41;;;;;;;13.57;7.18;;;-2.10;99.90;;;;;;5075944;28;20040;-96
2022/02/14 20:52:07;;;;;;;12.38;7.07;;;-2.10;99.90;;;;;;5075853;28;20028;-96
2022/02/14 20:54:34;;;;;;;14.27;7.35;;;-2.10;99.90;;;;;;5075880;28;20024;-95
2022/02/14 20:57:03;;;;;;;15.80;8.25;;;-2.10;99.90;;;;;;5075628;28;20017;-96
2022/02/14 20:59:30;;;;;;;19.67;9.43;;;-2.10;99.90;;;;;;5075804;28;20463;-96
2022/02/14 21:01:56;;;;;;;15.00;8.23;;;-2.10;99.90;;;;;;5075686;28;20037;-95
2022/02/14 21:04:25;;;;;;;13.95;7.70;;;-2.10;99.90;;;;;;5075568;28;20025;-96
2022/02/14 21:06:51;;;;;;;16.00;8.68;;;-2.10;99.90;;;;;;5075444;28;20025;-96
2022/02/14 21:09:17;;;;;;;21.65;10.15;;;-2.10;99.90;;;;;;5075402;28;20033;-96
2022/02/14 21:11:43;;;;;;;15.88;8.10;;;-2.10;99.90;;;;;;5075409;28;20021;-96
2022/02/14 21:14:09;;;;;;;16.48;8.30;;;-2.10;99.90;;;;;;5075356;28;20104;-96
2022/02/14 21:16:36;;;;;;;20.02;10.75;;;-2.20;99.90;;;;;;5075389;28;20027;-95
2022/02/14 21:19:04;;;;;;;21.15;9.95;;;-2.20;99.90;;;;;;5075443;28;20040;-95
2022/02/14 21:21:30;;;;;;;23.33;10.45;;;-2.20;99.90;;;;;;5075633;28;20070;-95
2022/02/14 21:23:56;;;;;;;18.23;9.88;;;-2.20;99.90;;;;;;5075230;28;20020;-96
2022/02/14 21:26:23;;;;;;;17.13;8.88;;;-2.20;99.90;;;;;;5075230;28;20032;-95
2022/02/14 21:28:49;;;;;;;22.85;9.95;;;-2.20;99.90;;;;;;5075189;28;20029;-96
2022/02/14 21:31:15;;;;;;;20.10;8.55;;;-2.20;99.90;;;;;;5074779;28;20027;-96
2022/02/14 21:33:41;;;;;;;18.65;9.18;;;-2.20;99.90;;;;;;5058141;28;20021;-96
2022/02/14 21:36:08;;;;;;;18.95;9.27;;;-2.20;99.90;;;;;;5058254;28;20118;-96
2022/02/14 21:38:35;;;;;;;23.65;10.98;;;-2.20;99.90;;;;;;5058611;28;20027;-96
2022/02/14 21:41:01;;;;;;;17.90;9.77;;;-2.20;99.90;;;;;;5058488;28;20077;-96
2022/02/14 21:43:27;;;;;;;23.55;10.43;;;-2.20;99.90;;;;;;5058121;28;20028;-96
2022/02/14 21:45:54;;;;;;;27.85;10.20;;;-2.20;99.90;;;;;;5058216;28;20029;-96
2022/02/14 21:48:20;;;;;;;23.17;10.68;;;-2.20;99.90;;;;;;5058053;28;20089;-95
2022/02/14 21:50:46;;;;;;;22.58;9.38;;;-2.20;99.90;;;;;;5058102;28;20020;-96
2022/02/14 21:53:12;;;;;;;23.15;11.27;;;-2.20;99.90;;;;;;5058051;28;20094;-95
2022/02/14 21:55:38;;;;;;;18.65;9.73;;;-2.20;99.90;;;;;;5057866;28;20470;-96
2022/02/14 21:58:04;;;;;;;18.02;9.70;;;-2.20;99.90;;;;;;5058229;28;20043;-96
2022/02/14 22:00:36;;;;;;;22.60;10.60;;;-2.10;99.90;;;;;;5057950;28;20029;-95
2022/02/14 22:03:02;;;;;;;19.98;9.70;;;-2.10;99.90;;;;;;5057915;28;20485;-95
2022/02/14 22:08:12;;;;;;;21.27;10.27;;;-2.10;99.90;;;;;;5075956;28;20055;-95
2022/02/14 22:10:38;;;;;;;21.95;9.77;;;-2.10;99.90;;;;;;5057873;28;20466;-95
2022/02/14 22:13:04;;;;;;;23.60;10.50;;;-2.10;99.90;;;;;;5058011;28;20033;-96
2022/02/14 22:15:30;;;;;;;21.08;10.43;;;-2.10;99.90;;;;;;5057437;28;20031;-96
2022/02/14 22:17:56;;;;;;;26.58;11.05;;;-2.10;99.90;;;;;;5057706;28;20024;-96
2022/02/14 22:20:23;;;;;;;21.80;10.52;;;-2.20;99.90;;;;;;5057709;28;20488;-95
2022/02/14 22:22:50;;;;;;;19.58;10.10;;;-2.10;99.90;;;;;;5057466;28;20163;-96
2022/02/14 22:25:16;;;;;;;21.50;10.45;;;-2.10;99.90;;;;;;5057245;28;20021;-95
2022/02/14 22:27:42;;;;;;;22.80;11.40;;;-2.10;99.90;;;;;;5057208;28;20363;-95
2022/02/14 22:30:09;;;;;;;23.02;10.60;;;-2.20;99.90;;;;;;5057178;28;20066;-96
2022/02/14 22:32:34;;;;;;;21.70;11.02;;;-2.20;99.90;;;;;;5064959;28;20045;-96
2022/02/14 22:35:00;;;;;;;26.60;11.65;;;-2.20;99.90;;;;;;5073795;28;20359;-96
2022/02/14 22:37:26;;;;;;;33.15;12.65;;;-2.20;99.90;;;;;;5073878;28;20051;-95
2022/02/14 22:39:51;;;;;;;21.55;10.60;;;-2.30;99.90;;;;;;5074049;28;20061;-96
2022/02/14 22:42:17;;;;;;;25.20;11.90;;;-2.30;99.90;;;;;;5073074;28;20024;-95
2022/02/14 22:44:43;;;;;;;25.92;12.45;;;-2.30;99.90;;;;;;5074571;28;20119;-96
2022/02/14 22:47:09;;;;;;;27.40;12.23;;;-2.40;99.90;;;;;;5073624;28;20043;-96
2022/02/14 22:49:36;;;;;;;29.13;12.98;;;-2.30;99.90;;;;;;5073342;28;20039;-95
2022/02/14 22:52:03;;;;;;;25.92;12.27;;;-2.40;99.90;;;;;;5073469;28;20471;-95
2022/02/14 22:54:29;;;;;;;29.05;11.80;;;-2.40;99.90;;;;;;5073418;28;20339;-96
2022/02/14 22:56:54;;;;;;;31.70;12.40;;;-2.40;99.90;;;;;;5073441;28;20016;-96
2022/02/14 22:59:20;;;;;;;28.38;12.20;;;-2.40;99.90;;;;;;5073674;28;20027;-95
2022/02/14 23:04:33;;;;;;;28.67;13.18;;;-2.40;99.90;;;;;;5075043;28;20432;-95
2022/02/14 23:15:12;;;;;;;26.95;12.95;;;-2.50;99.90;;;;;;5074965;28;20058;-95
2022/02/14 23:17:37;;;;;;;28.88;13.20;;;-2.60;99.90;;;;;;5073800;28;20107;-95
2022/02/14 23:20:05;;;;;;;26.52;11.60;;;-2.50;99.90;;;;;;5073414;28;20112;-96
2022/02/14 23:22:31;;;;;;;26.75;12.68;;;-2.60;99.90;;;;;;5073103;28;20067;-95
2022/02/14 23:24:57;;;;;;;32.03;13.23;;;-2.60;99.90;;;;;;5073191;28;20047;-95
2022/02/14 23:27:22;;;;;;;27.98;12.98;;;-2.60;99.90;;;;;;5073023;28;20043;-96
2022/02/14 23:29:48;;;;;;;30.15;13.45;;;-2.60;99.90;;;;;;5072931;28;20028;-95
2022/02/14 23:32:14;;;;;;;27.02;12.27;;;-2.60;99.90;;;;;;5072881;28;20082;-95
2022/02/14 23:34:40;;;;;;;27.35;12.48;;;-2.70;99.90;;;;;;5073069;28;20031;-95
2022/02/14 23:37:05;;;;;;;31.85;13.32;;;-2.70;99.90;;;;;;5073253;28;20356;-95
2022/02/14 23:39:31;;;;;;;29.52;12.85;;;-2.70;99.90;;;;;;5073100;28;20021;-95
2022/02/14 23:41:57;;;;;;;28.77;12.77;;;-2.70;99.90;;;;;;5073115;28;20119;-95
2022/02/14 23:44:23;;;;;;;27.52;12.80;;;-2.70;99.90;;;;;;5072909;28;20024;-95
2022/02/14 23:46:48;;;;;;;30.58;14.10;;;-2.80;99.90;;;;;;5073096;28;20032;-95
2022/02/14 23:49:14;;;;;;;29.25;14.13;;;-2.70;99.90;;;;;;5072802;28;20032;-96
2022/02/14 23:51:39;;;;;;;32.50;13.43;;;-2.80;99.90;;;;;;5073027;28;20035;-95
2022/02/14 23:54:05;;;;;;;29.88;13.38;;;-2.80;99.90;;;;;;5074481;28;20016;-95
2022/02/14 23:56:31;;;;;;;26.02;12.35;;;-2.80;99.90;;;;;;5077065;28;20024;-95
2022/02/14 23:58:57;;;;;;;26.27;11.70;;;-2.80;99.90;;;;;;5076991;28;20046;-95
